Time;durP1;ratioP1;P1;durP2;ratioP2;P2;SDS_P1;SDS_P2;PMS_P1;PMS_P2;Temp;Humidity;BMP_temperature;BMP_pressure;BME280_temperature;BME280_humidity;BME280_pressure;Samples;Min_cycle;Max_cycle;Signal;HPM_P1;HPM_P2
2021/05/22 00:00:35;;;;;;;;;;;15.00;48.50;;;;;;5074256;28;20049;-64
2021/05/22 00:03:01;;;;;;;3.10;0.95;;;15.10;47.90;;;;;;5073753;28;19924;-66
2021/05/22 00:05:28;;;;;;;2.15;0.90;;;15.20;47.50;;;;;;5073657;28;20032;-71
2021/05/22 00:07:54;;;;;;;;;;;15.20;47.40;;;;;;5074134;28;20045;-70
2021/05/22 00:10:20;;;;;;;2.65;0.98;;;15.20;46.90;;;;;;5075036;28;19958;-65
2021/05/22 00:12:46;;;;;;;2.20;0.90;;;15.20;47.50;;;;;;5073400;28;20488;-70
2021/05/22 00:15:16;;;;;;;4.55;1.20;;;15.10;47.40;;;;;;5073345;28;20020;-71
2021/05/22 00:17:44;;;;;;;3.70;0.90;;;15.00;47.20;;;;;;5073418;28;20404;-65
2021/05/22 00:20:11;;;;;;;7.78;1.23;;;15.00;46.80;;;;;;5074653;28;20032;-71
2021/05/22 00:22:40;;;;;;;2.55;1.00;;;15.00;47.40;;;;;;5074620;28;20428;-71
2021/05/22 00:25:07;;;;;;;3.45;1.08;;;14.90;47.50;;;;;;5073236;28;20070;-64
2021/05/22 00:27:34;;;;;;;2.80;0.93;;;14.90;47.70;;;;;;5074552;28;20400;-65
2021/05/22 00:30:01;;;;;;;6.20;1.10;;;14.80;47.60;;;;;;5073189;28;20036;-71
2021/05/22 00:32:27;;;;;;;2.15;0.70;;;14.80;47.60;;;;;;5073155;28;20102;-71
2021/05/22 00:34:53;;;;;;;2.28;0.90;;;14.70;48.70;;;;;;5072984;28;20028;-71
2021/05/22 00:37:19;;;;;;;2.97;1.08;;;14.70;49.20;;;;;;5074317;28;20055;-70
2021/05/22 00:39:45;;;;;;;3.15;1.10;;;14.60;49.40;;;;;;5074260;28;20043;-71
2021/05/22 00:42:11;;;;;;;2.75;1.00;;;14.60;49.60;;;;;;5072995;28;20045;-70
2021/05/22 00:45:12;;;;;;;4.93;1.00;;;14.60;49.80;;;;;;5072813;28;20040;-71
2021/05/22 00:47:42;;;;;;;2.83;0.85;;;14.50;49.30;;;;;;5074230;28;20094;-64
2021/05/22 00:50:30;;;;;;;4.05;1.10;;;14.50;50.60;;;;;;5074107;28;20035;-71
2021/05/22 00:52:56;;;;;;;2.50;0.93;;;14.50;51.00;;;;;;5073698;28;20048;-65
2021/05/22 00:55:24;;;;;;;5.18;1.20;;;14.40;51.10;;;;;;5072776;28;20148;-65
2021/05/22 00:57:50;;;;;;;3.20;1.00;;;14.40;50.80;;;;;;5073880;28;20036;-70
2021/05/22 01:00:48;;;;;;;3.50;1.00;;;14.40;50.00;;;;;;5073558;28;20052;-64
2021/05/22 01:03:34;;;;;;;;;;;14.30;50.80;;;;;;5074286;28;20082;-65
2021/05/22 01:06:28;;;;;;;3.22;0.90;;;14.20;50.30;;;;;;5072418;28;20756;-65
2021/05/22 01:09:18;;;;;;;4.22;1.45;;;14.10;50.80;;;;;;5073655;28;20123;-70
2021/05/22 01:11:50;;;;;;;2.17;0.88;;;14.10;51.50;;;;;;5074101;28;20036;-64
2021/05/22 01:14:42;;;;;;;3.70;1.20;;;14.00;51.80;;;;;;5072264;28;20032;-70
2021/05/22 01:17:11;;;;;;;3.40;1.10;;;14.00;51.80;;;;;;5072332;28;20131;-64
2021/05/22 01:20:33;;;;;;;3.53;0.80;;;14.00;51.50;;;;;;5072216;28;20036;-65
2021/05/22 01:23:07;;;;;;;5.22;0.95;;;14.00;51.70;;;;;;5073367;28;20103;-71
2021/05/22 01:25:53;;;;;;;2.95;0.70;;;13.90;52.00;;;;;;5072198;28;20033;-65
2021/05/22 01:28:19;;;;;;;3.10;1.10;;;13.80;52.30;;;;;;5073346;28;20032;-70
2021/05/22 01:30:47;;;;;;;2.33;0.90;;;13.80;51.90;;;;;;5072114;28;20032;-71
2021/05/22 01:33:14;;;;;;;2.75;1.10;;;13.70;52.50;;;;;;5073266;28;20028;-64
2021/05/22 01:35:42;;;;;;;2.65;0.85;;;13.70;52.30;;;;;;5071969;28;20051;-65
2021/05/22 01:38:08;;;;;;;3.10;0.98;;;13.60;52.80;;;;;;5073114;28;20043;-70
2021/05/22 01:40:36;;;;;;;4.95;1.00;;;13.60;52.30;;;;;;5071913;28;20047;-71
2021/05/22 01:43:03;;;;;;;3.92;1.17;;;13.60;53.00;;;;;;5055079;28;20039;-65
2021/05/22 01:45:33;;;;;;;3.40;1.00;;;13.50;52.90;;;;;;5071738;28;20067;-71
2021/05/22 01:48:03;;;;;;;3.72;0.85;;;13.50;53.10;;;;;;5088496;28;20483;-70
2021/05/22 01:50:33;;;;;;;1.80;0.73;;;13.50;53.20;;;;;;5055166;28;20092;-65
2021/05/22 01:53:03;;;;;;;2.75;0.98;;;13.50;53.40;;;;;;5071601;28;20052;-65
2021/05/22 01:55:30;;;;;;;3.63;0.90;;;13.50;53.70;;;;;;5071815;28;20087;-64
2021/05/22 01:57:57;;;;;;;1.92;0.90;;;13.40;53.80;;;;;;5071603;28;20550;-71
2021/05/22 02:00:23;;;;;;;5.07;1.42;;;13.40;54.10;;;;;;5071346;28;20098;-70
2021/05/22 02:03:30;;;;;;;;;;;13.30;53.90;;;;;;5073561;28;20029;-64
2021/05/22 02:05:59;;;;;;;2.55;0.90;;;13.30;53.70;;;;;;5070909;28;19920;-65
2021/05/22 02:08:26;;;;;;;2.53;0.90;;;13.20;54.50;;;;;;5071507;28;20032;-64
2021/05/22 02:10:52;;;;;;;2.85;0.98;;;13.10;54.80;;;;;;5071245;28;20047;-64
2021/05/22 02:13:19;;;;;;;3.28;1.10;;;13.10;54.90;;;;;;5071538;28;20028;-70
2021/05/22 02:16:08;;;;;;;3.78;1.60;;;13.10;54.70;;;;;;5071416;28;20154;-64
2021/05/22 02:18:39;;;;;;;3.22;1.25;;;13.10;55.30;;;;;;5072756;28;20150;-71
2021/05/22 02:21:06;;;;;;;2.55;1.00;;;13.00;55.20;;;;;;5071592;28;20088;-70
2021/05/22 02:23:39;;;;;;;1.92;0.95;;;13.00;55.30;;;;;;5071188;28;20040;-71
2021/05/22 02:26:07;;;;;;;1.98;0.90;;;13.00;55.30;;;;;;5054410;28;20040;-64
2021/05/22 02:28:39;;;;;;;3.45;0.90;;;13.00;55.40;;;;;;5071354;28;20025;-64
2021/05/22 02:31:06;;;;;;;2.53;1.23;;;12.90;55.60;;;;;;5071493;28;20037;-64
2021/05/22 02:33:33;;;;;;;5.10;1.00;;;12.90;55.30;;;;;;5071377;28;20550;-70
2021/05/22 02:36:00;;;;;;;3.83;0.93;;;12.90;55.90;;;;;;5071264;28;20044;-70
2021/05/22 02:39:04;;;;;;;4.43;1.60;;;12.90;56.10;;;;;;5071290;28;20431;-70
2021/05/22 02:41:31;;;;;;;3.08;0.90;;;12.80;56.10;;;;;;5071332;28;20040;-69
2021/05/22 02:44:00;;;;;;;2.60;0.95;;;12.80;56.20;;;;;;5071032;28;20053;-70
2021/05/22 02:46:28;;;;;;;3.08;0.88;;;12.80;56.30;;;;;;5071409;28;20036;-65
2021/05/22 02:48:56;;;;;;;3.75;1.00;;;12.80;56.30;;;;;;5071098;28;20602;-70
2021/05/22 02:51:24;;;;;;;3.38;1.02;;;12.80;56.40;;;;;;5071028;28;20510;-70
2021/05/22 02:53:52;;;;;;;3.22;1.10;;;12.90;56.50;;;;;;5071028;28;20044;-70
2021/05/22 02:56:19;;;;;;;6.43;1.08;;;12.90;56.70;;;;;;5071223;28;20033;-70
2021/05/22 02:58:47;;;;;;;1.85;0.80;;;12.90;57.10;;;;;;5070956;28;20146;-65
2021/05/22 03:01:13;;;;;;;2.55;1.05;;;12.90;57.40;;;;;;5070983;28;20051;-71
2021/05/22 03:03:42;;;;;;;2.45;1.10;;;12.90;57.00;;;;;;5070744;28;20185;-64
2021/05/22 03:06:08;;;;;;;2.13;0.80;;;12.90;56.90;;;;;;5071126;28;20032;-64
2021/05/22 03:08:53;;;;;;;4.80;1.20;;;13.00;57.30;;;;;;5072255;28;20033;-64
2021/05/22 03:11:21;;;;;;;3.28;1.20;;;13.00;57.00;;;;;;5071187;28;20484;-65
2021/05/22 03:13:48;;;;;;;4.82;1.35;;;13.10;56.60;;;;;;5070841;28;20044;-64
2021/05/22 03:16:15;;;;;;;3.22;1.05;;;13.10;56.50;;;;;;5072552;28;20039;-64
2021/05/22 03:18:41;;;;;;;4.30;1.10;;;13.10;56.10;;;;;;5074626;28;20028;-65
2021/05/22 03:21:07;;;;;;;;;;;13.10;56.20;;;;;;5076710;28;20488;-65
2021/05/22 03:23:34;;;;;;;4.90;1.08;;;13.10;56.20;;;;;;5074434;28;19916;-65
2021/05/22 03:26:01;;;;;;;2.85;0.90;;;13.10;56.20;;;;;;5074391;28;20053;-65
2021/05/22 03:28:27;;;;;;;1.40;0.73;;;13.20;56.30;;;;;;5074460;28;20029;-65
2021/05/22 03:30:53;;;;;;;;;;;13.20;56.30;;;;;;5091523;28;20094;-65
2021/05/22 03:33:19;;;;;;;3.55;1.00;;;13.20;55.90;;;;;;5057698;28;19916;-65
2021/05/22 03:35:45;;;;;;;;;;;13.20;56.20;;;;;;5074883;28;20039;-70
2021/05/22 03:38:11;;;;;;;3.45;1.00;;;13.20;55.50;;;;;;5074306;28;19923;-71
2021/05/22 03:40:37;;;;;;;;;;;13.20;56.60;;;;;;5076146;28;20058;-64
2021/05/22 03:43:03;;;;;;;2.95;0.98;;;13.20;56.30;;;;;;5074129;28;20261;-68
2021/05/22 03:45:30;;;;;;;2.85;0.98;;;13.10;56.60;;;;;;5074016;28;20033;-65
2021/05/22 03:47:56;;;;;;;;;;;13.10;56.90;;;;;;5074639;28;20041;-65
2021/05/22 03:50:22;;;;;;;3.72;1.30;;;13.10;56.80;;;;;;5075404;28;20382;-71
2021/05/22 03:52:48;;;;;;;4.15;1.15;;;13.20;57.10;;;;;;5073982;28;20037;-64
2021/05/22 03:55:15;;;;;;;4.93;1.13;;;13.20;56.90;;;;;;5073882;28;20045;-65
2021/05/22 03:57:41;;;;;;;2.92;1.15;;;13.30;56.60;;;;;;5073934;28;20043;-65
2021/05/22 04:00:10;;;;;;;5.22;1.38;;;13.30;56.80;;;;;;5056819;28;20047;-70
2021/05/22 04:02:37;;;;;;;3.45;1.02;;;13.40;56.70;;;;;;5073901;28;20076;-71
2021/05/22 04:05:05;;;;;;;3.35;1.02;;;13.40;56.90;;;;;;5074925;28;20033;-70
2021/05/22 04:07:31;;;;;;;14.68;1.35;;;13.40;57.00;;;;;;5057005;28;20039;-70
2021/05/22 04:09:57;;;;;;;3.88;1.10;;;13.40;57.20;;;;;;5074831;28;20381;-65
2021/05/22 04:12:23;;;;;;;6.53;1.17;;;13.40;57.20;;;;;;5073719;28;20036;-70
2021/05/22 04:14:49;;;;;;;2.55;1.08;;;13.50;57.30;;;;;;5073432;28;20358;-65
2021/05/22 04:17:15;;;;;;;3.85;1.40;;;13.60;57.00;;;;;;5073601;28;20447;-71
2021/05/22 04:19:41;;;;;;;3.85;1.10;;;13.50;57.10;;;;;;5073465;28;20070;-65
2021/05/22 04:22:07;;;;;;;5.13;1.05;;;13.50;57.30;;;;;;5073585;28;20169;-70
2021/05/22 04:24:33;;;;;;;5.28;1.30;;;13.50;57.40;;;;;;5074552;28;20546;-65
2021/05/22 04:27:00;;;;;;;5.13;1.65;;;13.60;57.50;;;;;;5073115;28;20033;-71
2021/05/22 04:29:26;;;;;;;11.45;5.70;;;13.60;57.60;;;;;;5072908;28;20060;-65
2021/05/22 04:31:52;;;;;;;11.63;5.85;;;13.70;57.80;;;;;;5074521;28;20086;-65
2021/05/22 04:34:18;;;;;;;15.40;4.43;;;13.80;57.90;;;;;;5073110;28;20055;-70
2021/05/22 04:36:44;;;;;;;9.65;3.63;;;13.80;57.70;;;;;;5074882;28;20392;-65
2021/05/22 04:39:10;;;;;;;5.78;2.25;;;13.80;58.20;;;;;;5074209;28;20043;-64
2021/05/22 04:41:36;;;;;;;5.72;1.60;;;13.80;59.10;;;;;;5074816;28;20597;-70
2021/05/22 04:44:03;;;;;;;6.88;1.60;;;13.80;59.30;;;;;;5072852;28;20090;-66
2021/05/22 04:46:29;;;;;;;3.03;1.08;;;13.70;59.20;;;;;;5073173;28;20434;-65
2021/05/22 04:48:55;;;;;;;3.42;1.42;;;13.80;59.90;;;;;;5072865;28;20033;-71
2021/05/22 04:51:24;;;;;;;6.20;1.20;;;13.80;59.80;;;;;;5074486;28;20062;-70
2021/05/22 04:53:50;;;;;;;6.65;1.10;;;13.90;59.70;;;;;;5072726;28;20058;-70
2021/05/22 04:56:16;;;;;;;5.45;1.17;;;14.00;59.40;;;;;;5072960;28;20044;-70
2021/05/22 04:58:42;;;;;;;3.72;1.20;;;14.20;59.00;;;;;;5072878;28;20051;-70
2021/05/22 05:01:08;;;;;;;5.22;1.30;;;14.30;59.00;;;;;;5073869;28;20072;-70
2021/05/22 05:03:35;;;;;;;4.93;1.70;;;14.40;58.70;;;;;;5072532;28;20424;-64
2021/05/22 05:06:01;;;;;;;5.55;1.55;;;14.50;58.70;;;;;;5073963;28;20116;-70
2021/05/22 05:08:28;;;;;;;9.77;2.50;;;14.70;58.60;;;;;;5073796;28;20036;-71
2021/05/22 05:10:54;;;;;;;5.47;1.83;;;14.70;58.80;;;;;;5073447;28;20032;-71
2021/05/22 05:13:21;;;;;;;6.05;1.30;;;14.80;58.50;;;;;;5072529;28;20032;-71
2021/05/22 05:15:48;;;;;;;5.15;1.42;;;14.90;58.70;;;;;;5073690;28;20120;-71
2021/05/22 05:18:14;;;;;;;9.57;1.42;;;14.90;58.50;;;;;;5072320;28;20032;-66
2021/05/22 05:20:40;;;;;;;6.40;2.28;;;15.00;58.70;;;;;;5072303;28;20515;-65
2021/05/22 05:23:06;;;;;;;5.03;1.05;;;15.10;58.70;;;;;;5073762;28;20043;-71
2021/05/22 05:25:32;;;;;;;5.03;1.30;;;15.20;58.40;;;;;;5072212;28;20040;-65
2021/05/22 05:27:58;;;;;;;4.00;1.08;;;15.30;58.50;;;;;;5072065;28;20120;-65
2021/05/22 05:30:25;;;;;;;3.90;1.33;;;15.40;58.20;;;;;;5088962;28;20039;-71
2021/05/22 05:32:51;;;;;;;;;;;15.50;57.50;;;;;;5073768;28;20444;-67
2021/05/22 05:35:17;;;;;;;6.35;1.50;;;15.70;56.90;;;;;;5071927;28;19961;-65
2021/05/22 05:37:43;;;;;;;6.85;1.58;;;15.80;56.10;;;;;;5072039;28;20040;-65
2021/05/22 05:40:09;;;;;;;;;;;15.90;55.90;;;;;;5072886;28;20062;-70
2021/05/22 05:42:36;;;;;;;5.43;1.20;;;16.00;55.60;;;;;;5071894;28;19920;-69
2021/05/22 05:45:04;;;;;;;6.53;1.67;;;16.20;54.40;;;;;;5071589;28;20028;-65
2021/05/22 05:47:30;;;;;;;3.42;1.13;;;16.40;54.50;;;;;;5073063;28;20082;-70
2021/05/22 05:49:56;;;;;;;5.82;1.13;;;16.50;54.20;;;;;;5072971;28;20032;-65
2021/05/22 05:52:22;;;;;;;4.28;1.13;;;16.50;54.10;;;;;;5072911;28;20404;-71
2021/05/22 05:54:48;;;;;;;5.47;1.17;;;16.60;53.70;;;;;;5071978;28;20476;-65
2021/05/22 05:57:14;;;;;;;;;;;16.60;53.10;;;;;;5055476;28;20504;-65
2021/05/22 05:59:40;;;;;;;5.78;1.23;;;16.70;53.40;;;;;;5072565;28;19969;-65
2021/05/22 06:02:07;;;;;;;4.53;1.55;;;16.80;52.80;;;;;;5071645;28;20397;-65
2021/05/22 06:04:33;;;;;;;8.35;2.67;;;16.80;52.60;;;;;;5072743;28;20037;-65
2021/05/22 06:06:59;;;;;;;4.90;1.35;;;16.90;52.70;;;;;;5071552;28;20396;-71
2021/05/22 06:09:25;;;;;;;7.28;2.00;;;16.90;51.90;;;;;;5072943;28;20040;-71
2021/05/22 06:11:51;;;;;;;3.75;1.38;;;17.00;52.00;;;;;;5072688;28;20051;-66
2021/05/22 06:17:02;;;;;;;6.00;1.73;;;17.10;50.90;;;;;;5072752;28;20090;-71
2021/05/22 06:19:28;;;;;;;6.55;2.10;;;17.20;50.70;;;;;;5071224;28;20020;-65
2021/05/22 06:21:54;;;;;;;8.30;4.15;;;17.30;50.50;;;;;;5088175;28;20036;-70
2021/05/22 06:24:20;;;;;;;6.72;3.67;;;17.40;49.50;;;;;;5071116;28;20036;-71
2021/05/22 06:26:47;;;;;;;6.35;2.92;;;17.50;49.30;;;;;;5072603;28;20064;-65
2021/05/22 06:29:13;;;;;;;7.85;2.92;;;17.70;48.60;;;;;;5071407;28;20040;-65
2021/05/22 06:31:40;;;;;;;5.75;2.30;;;17.90;48.70;;;;;;5073014;28;20431;-71
2021/05/22 06:34:06;;;;;;;4.70;1.90;;;18.00;47.60;;;;;;5072519;28;20083;-71
2021/05/22 06:36:32;;;;;;;4.35;1.25;;;18.20;48.10;;;;;;5072957;28;20036;-71
2021/05/22 06:38:58;;;;;;;3.35;1.08;;;18.30;48.00;;;;;;5072326;28;20045;-71
2021/05/22 06:41:24;;;;;;;;;;;18.40;48.00;;;;;;5088661;28;20032;-71
2021/05/22 06:43:51;;;;;;;7.40;1.30;;;18.50;48.60;;;;;;5072305;28;19920;-71
2021/05/22 06:48:43;;;;;;;3.17;1.00;;;18.60;47.80;;;;;;5071195;28;20497;-71
2021/05/22 06:51:09;;;;;;;5.38;1.20;;;18.50;47.80;;;;;;5072733;28;20040;-65
2021/05/22 06:53:36;;;;;;;5.47;1.33;;;18.50;47.90;;;;;;5075100;28;20039;-65
2021/05/22 06:56:02;;;;;;;8.43;1.50;;;18.50;48.30;;;;;;5075061;28;20036;-65
2021/05/22 06:58:29;;;;;;;5.88;1.27;;;18.40;48.30;;;;;;5074976;28;20516;-71
2021/05/22 07:00:57;;;;;;;7.18;1.42;;;18.50;48.10;;;;;;5074727;28;20060;-71
2021/05/22 07:03:24;;;;;;;5.20;1.30;;;18.60;47.90;;;;;;5058348;28;20060;-71
2021/05/22 07:05:50;;;;;;;9.45;3.47;;;18.80;47.80;;;;;;5074800;28;20095;-65
2021/05/22 07:08:17;;;;;;;9.18;2.50;;;19.00;47.00;;;;;;5074843;28;20086;-71
2021/05/22 07:10:44;;;;;;;6.45;2.30;;;19.20;46.20;;;;;;5074778;28;20124;-65
2021/05/22 07:13:10;;;;;;;4.43;1.30;;;19.30;46.10;;;;;;5074672;28;20037;-66
2021/05/22 07:15:37;;;;;;;;;;;19.40;46.10;;;;;;5075171;28;20036;-71
2021/05/22 07:18:03;;;;;;;3.35;1.20;;;19.50;46.40;;;;;;5057819;28;20327;-71
2021/05/22 07:20:29;;;;;;;3.38;1.15;;;19.70;46.10;;;;;;5074552;28;20472;-65
2021/05/22 07:22:55;;;;;;;;;;;19.90;46.60;;;;;;5076290;28;20103;-70
2021/05/22 07:25:24;;;;;;;3.03;1.13;;;20.30;45.60;;;;;;5075807;28;19923;-66
2021/05/22 07:27:52;;;;;;;4.75;1.35;;;20.50;44.70;;;;;;5075601;28;20044;-71
2021/05/22 07:30:19;;;;;;;4.88;1.20;;;20.80;43.90;;;;;;5074490;28;20131;-71
2021/05/22 07:32:46;;;;;;;2.53;0.80;;;20.90;43.30;;;;;;5075624;28;20484;-71
2021/05/22 07:35:13;;;;;;;6.38;1.05;;;21.00;43.10;;;;;;5074325;28;20040;-65
2021/05/22 07:37:41;;;;;;;4.00;1.30;;;20.80;43.60;;;;;;5074305;28;20377;-65
2021/05/22 07:40:11;;;;;;;3.88;1.02;;;20.70;42.60;;;;;;5074141;28;20499;-66
2021/05/22 07:42:37;;;;;;;2.45;0.85;;;20.50;39.00;;;;;;5074119;28;20115;-66
2021/05/22 07:45:05;;;;;;;3.10;0.70;;;20.40;39.00;;;;;;5073887;28;20542;-72
2021/05/22 07:47:32;;;;;;;2.47;0.80;;;20.20;39.20;;;;;;5074160;28;20037;-72
2021/05/22 07:49:59;;;;;;;;;;;20.30;39.50;;;;;;5074370;28;20032;-71
2021/05/22 07:52:25;;;;;;;;;;;20.30;40.70;;;;;;5074669;28;19948;-66
2021/05/22 07:54:51;;;;;;;3.38;1.02;;;20.40;40.70;;;;;;5075477;28;19917;-65
2021/05/22 07:57:17;;;;;;;;;;;20.50;39.50;;;;;;5075661;28;20046;-71
2021/05/22 07:59:43;;;;;;;6.03;0.80;;;20.50;40.90;;;;;;5074744;28;19967;-67
2021/05/22 08:02:10;;;;;;;4.20;0.95;;;20.50;40.60;;;;;;5073297;28;20029;-65
2021/05/22 08:04:36;;;;;;;2.25;0.90;;;20.60;39.60;;;;;;5073482;28;20033;-67
2021/05/22 08:07:03;;;;;;;;;;;20.50;40.30;;;;;;5074290;28;20037;-71
2021/05/22 08:09:29;;;;;;;1.53;0.70;;;20.50;41.10;;;;;;5073692;28;19966;-72
2021/05/22 08:11:55;;;;;;;2.83;1.15;;;20.60;41.50;;;;;;5073580;28;20032;-66
2021/05/22 08:14:21;;;;;;;2.90;0.80;;;20.60;41.00;;;;;;5074734;28;20033;-65
2021/05/22 08:16:48;;;;;;;1.35;0.65;;;20.70;41.20;;;;;;5073465;28;20052;-71
2021/05/22 08:19:14;;;;;;;;;;;20.60;40.30;;;;;;5090863;28;20476;-72
2021/05/22 08:21:41;;;;;;;4.25;0.90;;;20.60;40.80;;;;;;5073764;28;20330;-72
2021/05/22 08:24:09;;;;;;;2.97;0.70;;;20.60;42.30;;;;;;5074623;28;20032;-71
2021/05/22 08:26:38;;;;;;;2.95;0.90;;;20.70;41.40;;;;;;5073519;28;20119;-71
2021/05/22 08:29:05;;;;;;;2.65;0.80;;;20.70;41.30;;;;;;5073376;28;20024;-72
2021/05/22 08:31:32;;;;;;;6.43;1.13;;;20.80;40.70;;;;;;5073516;28;20086;-66
2021/05/22 08:34:00;;;;;;;5.40;2.05;;;20.90;41.00;;;;;;5073099;28;20029;-72
2021/05/22 08:36:27;;;;;;;1.80;0.63;;;21.20;40.50;;;;;;5073390;28;20043;-71
2021/05/22 08:38:53;;;;;;;2.60;0.70;;;21.40;39.20;;;;;;5073075;28;20503;-72
2021/05/22 08:41:20;;;;;;;4.80;0.70;;;21.40;38.40;;;;;;5073332;28;20103;-72
2021/05/22 08:43:48;;;;;;;1.83;0.70;;;21.40;37.30;;;;;;5073063;28;20033;-72
2021/05/22 08:46:20;;;;;;;2.08;0.60;;;21.50;37.40;;;;;;5073135;28;20032;-66
2021/05/22 08:48:48;;;;;;;2.17;0.70;;;21.60;36.90;;;;;;5089727;28;20037;-72
2021/05/22 08:51:18;;;;;;;1.55;0.60;;;21.60;37.20;;;;;;5074546;28;20032;-65
2021/05/22 08:53:45;;;;;;;4.80;0.80;;;21.60;36.20;;;;;;5072982;28;20496;-71
2021/05/22 08:56:11;;;;;;;1.85;0.70;;;21.60;36.20;;;;;;5074489;28;20032;-72
2021/05/22 08:58:37;;;;;;;1.45;0.60;;;21.80;37.30;;;;;;5074053;28;20060;-72
2021/05/22 09:01:04;;;;;;;6.97;1.00;;;22.20;36.70;;;;;;5072451;28;20048;-66
2021/05/22 09:03:31;;;;;;;2.92;0.60;;;22.60;35.60;;;;;;5072601;28;20079;-67
2021/05/22 09:05:58;;;;;;;2.38;0.68;;;22.70;34.40;;;;;;5072473;28;20040;-72
2021/05/22 09:08:25;;;;;;;2.33;0.73;;;22.70;33.80;;;;;;5073803;28;20484;-66
2021/05/22 09:10:53;;;;;;;1.48;0.60;;;22.50;34.70;;;;;;5073871;28;20060;-72
2021/05/22 09:13:38;;;;;;;2.30;0.70;;;22.40;34.80;;;;;;5072379;28;20594;-72
2021/05/22 09:16:35;;;;;;;2.38;0.65;;;22.70;35.10;;;;;;5073928;28;20028;-72
2021/05/22 09:19:02;;;;;;;2.95;0.95;;;22.90;34.70;;;;;;5072307;28;20098;-66
2021/05/22 09:21:34;;;;;;;3.97;0.77;;;23.40;35.40;;;;;;5072569;28;20480;-72
2021/05/22 09:24:01;;;;;;;3.50;0.82;;;23.70;34.90;;;;;;5073330;28;20040;-66
2021/05/22 09:26:33;;;;;;;2.97;0.60;;;24.00;32.50;;;;;;5072413;28;20387;-66
2021/05/22 09:29:01;;;;;;;5.88;0.88;;;24.30;31.60;;;;;;5072055;28;20032;-64
2021/05/22 09:31:28;;;;;;;3.17;0.50;;;24.80;32.10;;;;;;5055841;28;20062;-72
2021/05/22 09:34:12;;;;;;;4.25;0.85;;;26.10;29.90;;;;;;5073237;28;20052;-66
2021/05/22 09:37:27;;;;;;;2.97;0.75;;;27.30;30.00;;;;;;5072221;28;20037;-66
2021/05/22 09:39:53;;;;;;;5.03;0.70;;;28.60;29.30;;;;;;5071762;28;20039;-74
2021/05/22 09:42:57;;;;;;;2.35;0.60;;;30.10;25.90;;;;;;5073158;28;20020;-73
2021/05/22 09:45:44;;;;;;;2.97;0.52;;;31.00;25.50;;;;;;5071829;28;20112;-67
2021/05/22 09:48:30;;;;;;;2.15;0.80;;;31.70;24.50;;;;;;5072180;28;20420;-73
2021/05/22 09:50:57;;;;;;;2.20;0.70;;;32.70;24.10;;;;;;5071766;28;20044;-67
2021/05/22 09:53:42;;;;;;;2.83;1.00;;;33.70;21.60;;;;;;5088606;28;20548;-67
2021/05/22 09:56:27;;;;;;;2.13;0.65;;;34.20;22.20;;;;;;5073235;28;20108;-73
2021/05/22 09:59:14;;;;;;;3.38;0.68;;;34.00;20.20;;;;;;5072840;28;20098;-68
2021/05/22 10:01:43;;;;;;;2.13;0.70;;;33.80;19.70;;;;;;5072893;28;20056;-67
2021/05/22 10:04:21;;;;;;;5.35;1.35;;;33.70;20.30;;;;;;5072818;28;20045;-67
2021/05/22 10:06:48;;;;;;;2.65;1.08;;;34.00;20.20;;;;;;5072699;28;20051;-67
2021/05/22 10:09:39;;;;;;;2.75;0.70;;;34.40;20.70;;;;;;5071546;28;20028;-65
2021/05/22 10:12:09;;;;;;;1.75;0.90;;;34.50;18.20;;;;;;5072859;28;20142;-73
2021/05/22 10:14:39;;;;;;;1.58;1.13;;;34.40;18.50;;;;;;5071465;28;20033;-67
2021/05/22 10:17:08;;;;;;;3.38;0.90;;;34.70;18.30;;;;;;5071422;28;20408;-73
2021/05/22 10:19:35;;;;;;;2.05;0.68;;;35.30;18.40;;;;;;5071404;28;20028;-74
2021/05/22 10:22:04;;;;;;;2.88;0.75;;;35.60;18.30;;;;;;5071466;28;20043;-67
2021/05/22 10:24:31;;;;;;;7.15;1.00;;;36.00;17.30;;;;;;5072581;28;20108;-72
2021/05/22 10:26:58;;;;;;;4.75;1.13;;;35.50;17.90;;;;;;5070818;28;20078;-67
2021/05/22 10:29:26;;;;;;;2.55;0.98;;;34.40;18.40;;;;;;5071294;28;20033;-73
2021/05/22 10:31:53;;;;;;;3.50;0.80;;;33.30;20.20;;;;;;5072559;28;20029;-73
2021/05/22 10:34:22;;;;;;;2.55;1.00;;;32.80;19.00;;;;;;5072527;28;20029;-68
2021/05/22 10:37:07;;;;;;;5.85;1.13;;;33.10;20.10;;;;;;5071312;28;20040;-67
2021/05/22 10:39:51;;;;;;;2.28;0.75;;;34.10;19.10;;;;;;5071271;28;20032;-73
2021/05/22 10:42:36;;;;;;;2.28;0.80;;;33.70;19.90;;;;;;5072470;28;20037;-73
2021/05/22 10:45:37;;;;;;;1.48;0.80;;;32.30;20.00;;;;;;5072382;28;20400;-67
2021/05/22 10:48:23;;;;;;;4.18;0.80;;;31.80;20.50;;;;;;5072813;28;20484;-66
2021/05/22 10:50:50;;;;;;;2.42;0.70;;;32.50;20.80;;;;;;5071237;28;20059;-75
2021/05/22 10:53:37;;;;;;;1.83;0.65;;;32.60;19.60;;;;;;5072688;28;20036;-72
2021/05/22 10:56:16;;;;;;;1.35;0.60;;;31.80;20.30;;;;;;5071425;28;20125;-66
2021/05/22 10:59:01;;;;;;;4.32;0.70;;;31.00;21.20;;;;;;5071092;28;20032;-73
2021/05/22 11:04:18;;;;;;;3.53;0.73;;;29.50;22.00;;;;;;5072117;28;20102;-65
2021/05/22 11:06:49;;;;;;;3.38;0.60;;;28.50;22.40;;;;;;5072759;28;20042;-66
2021/05/22 11:09:52;;;;;;;1.17;0.60;;;27.70;23.20;;;;;;5072228;28;20032;-67
2021/05/22 11:12:38;;;;;;;2.83;0.70;;;27.20;23.70;;;;;;5070998;28;20041;-66
2021/05/22 11:15:05;;;;;;;5.27;0.90;;;26.80;24.80;;;;;;5072093;28;20472;-73
2021/05/22 11:17:33;;;;;;;4.80;1.00;;;26.20;24.20;;;;;;5072151;28;20029;-72
2021/05/22 11:20:06;;;;;;;1.95;0.50;;;25.90;25.10;;;;;;5072013;28;20037;-72
2021/05/22 11:22:38;;;;;;;2.05;0.70;;;25.60;25.30;;;;;;5072145;28;20392;-72
2021/05/22 11:25:14;;;;;;;1.60;0.68;;;25.40;25.20;;;;;;5071892;28;20051;-66
2021/05/22 11:30:40;;;;;;;3.28;1.02;;;25.00;26.10;;;;;;5072210;28;20033;-69
2021/05/22 11:33:10;;;;;;;2.65;0.80;;;25.00;26.70;;;;;;5070943;28;20048;-66
2021/05/22 11:35:56;;;;;;;3.10;0.77;;;24.90;26.70;;;;;;5070650;28;20056;-66
2021/05/22 11:38:23;;;;;;;2.58;0.80;;;24.90;27.00;;;;;;5073609;28;20072;-73
2021/05/22 11:41:09;;;;;;;4.20;0.90;;;24.60;26.80;;;;;;5074243;28;20064;-72
2021/05/22 11:44:03;;;;;;;4.90;1.10;;;24.30;26.80;;;;;;5074354;28;20158;-73
2021/05/22 11:46:29;;;;;;;6.63;1.00;;;24.10;27.80;;;;;;5074413;28;20025;-66
2021/05/22 11:48:56;;;;;;;2.75;0.90;;;24.00;27.80;;;;;;5075239;28;20158;-72
2021/05/22 11:51:42;;;;;;;5.75;0.70;;;23.90;28.30;;;;;;5075629;28;20024;-66
2021/05/22 11:56:54;;;;;;;2.73;0.70;;;23.80;28.40;;;;;;5075248;28;20052;-65
2021/05/22 11:59:20;;;;;;;;;;;23.80;28.80;;;;;;5075602;28;20078;-66
2021/05/22 12:01:46;;;;;;;3.45;0.80;;;23.70;28.60;;;;;;5074021;28;19920;-66
2021/05/22 12:04:15;;;;;;;2.03;0.82;;;23.70;30.60;;;;;;5090597;28;20480;-72
2021/05/22 12:06:44;;;;;;;2.88;0.82;;;23.50;29.30;;;;;;5074034;28;20032;-71
2021/05/22 12:09:30;;;;;;;2.13;0.70;;;23.60;29.70;;;;;;5073787;28;20051;-72
2021/05/22 12:12:15;;;;;;;3.40;1.00;;;23.70;30.00;;;;;;5074892;28;20033;-65
2021/05/22 12:15:01;;;;;;;2.78;0.80;;;23.80;30.30;;;;;;5074894;28;20075;-66
2021/05/22 12:17:27;;;;;;;8.48;1.00;;;24.00;30.40;;;;;;5074904;28;20194;-66
2021/05/22 12:19:55;;;;;;;;;;;24.40;30.40;;;;;;5073990;28;20040;-72
2021/05/22 12:22:31;;;;;;;4.20;0.98;;;24.70;29.30;;;;;;5074615;28;19921;-66
2021/05/22 12:24:57;;;;;;;3.60;0.75;;;25.40;29.50;;;;;;5073325;28;20029;-66
2021/05/22 12:27:24;;;;;;;2.40;0.70;;;26.40;27.30;;;;;;5074574;28;20036;-66
2021/05/22 12:29:52;;;;;;;4.15;0.85;;;27.30;27.50;;;;;;5073213;28;20036;-73
2021/05/22 12:32:20;;;;;;;3.03;0.70;;;28.50;24.80;;;;;;5073378;28;20078;-73
2021/05/22 12:34:54;;;;;;;2.50;0.80;;;28.70;24.30;;;;;;5073233;28;20025;-66
2021/05/22 12:37:22;;;;;;;4.85;1.70;;;28.40;25.10;;;;;;5073334;28;20060;-72
2021/05/22 12:40:09;;;;;;;2.65;0.77;;;28.80;24.40;;;;;;5073068;28;20028;-65
2021/05/22 12:42:38;;;;;;;4.30;0.82;;;29.00;23.80;;;;;;5073221;28;20037;-67
2021/05/22 12:45:23;;;;;;;4.80;1.10;;;29.30;23.00;;;;;;5073956;28;20409;-73
2021/05/22 12:47:52;;;;;;;4.35;0.90;;;29.40;22.40;;;;;;5072995;28;20036;-72
2021/05/22 12:50:37;;;;;;;3.63;0.80;;;28.40;23.70;;;;;;5072478;28;20035;-72
2021/05/22 12:53:06;;;;;;;3.53;0.75;;;28.00;24.90;;;;;;5074237;28;20098;-69
2021/05/22 12:55:35;;;;;;;2.45;0.73;;;28.50;24.00;;;;;;5072928;28;20035;-66
2021/05/22 12:58:08;;;;;;;2.08;0.85;;;28.80;23.40;;;;;;5072771;28;20123;-72
2021/05/22 13:00:35;;;;;;;6.28;0.80;;;29.10;23.00;;;;;;5072660;28;20080;-73
2021/05/22 13:03:03;;;;;;;4.38;0.90;;;28.50;23.20;;;;;;5072569;28;20067;-65
2021/05/22 13:05:50;;;;;;;2.45;0.80;;;27.90;24.00;;;;;;5072161;28;20051;-73
2021/05/22 13:08:25;;;;;;;4.25;1.00;;;27.30;24.40;;;;;;5068804;28;20036;-72
2021/05/22 13:10:51;;;;;;;5.07;0.88;;;27.00;25.30;;;;;;5072480;28;20064;-67
2021/05/22 13:13:38;;;;;;;3.05;0.80;;;27.10;25.40;;;;;;5087594;28;20043;-79
2021/05/22 13:16:06;;;;;;;;;;;26.80;25.20;;;;;;5073945;28;20040;-73
2021/05/22 13:18:35;;;;;;;5.05;0.82;;;26.70;25.30;;;;;;5077097;28;19927;-78
2021/05/22 13:21:07;;;;;;;5.60;1.20;;;26.40;25.50;;;;;;5074305;28;20068;-78
2021/05/22 13:23:41;;;;;;;8.98;0.90;;;26.50;27.30;;;;;;5052310;28;20044;-77